LRAR
Conditii: VFR
METAR: LRAR 211130Z 22011KT 180V250 9999 FEW035TCU BKN044 20/11 Q1009
LRBC
Conditii: LIFR
METAR: LRBC 211130Z 21011KT 1500 +TSRAGR BKN040CB BKN050 20/12 Q1009
LRBM
Conditii: VFR
METAR: LRBM 211130Z 10007KT 9999 FEW016 SCT022 16/12 Q1010 R09/19//95
LRBS
Conditii: VFR
METAR: LRBS 211130Z 23010KT 200V260 9999 SCT049 22/11 Q1012 NOSIG
LRCK
Conditii: VFR
METAR: LRCK 211130Z 14016KT 9999 TS SCT045CB 24/11 Q1011 NOSIG
LRCL
Conditii: VFR
METAR: LRCL 211130Z 09008KT 060V130 9999 SCT017 17/12 Q1011 R07/19//95
LRCV
Conditii: VFR
METAR: LRCV 211130Z 24010KT CAVOK 22/08 Q1011
LRIA
Conditii: VFR
METAR: LRIA 211130Z 17013KT 9999 FEW040CB FEW050TCU 20/08 Q1009
LROD
Conditii: VFR
METAR: LROD 211130Z 21016KT 9999 -SHRA SCT023 FEW042CB 18/12 Q1009
LROP
Conditii: VFR
METAR: LROP 211130Z 21010KT CAVOK 23/12 Q1011 NOSIG
LRSB
Conditii: VFR
METAR: LRSB 211130Z 12007KT 9999 VCTS VCSH SCT033CB SCT036 13/10 Q1011 R27/29//95 TEMPO 5000 TSRA
LRSM
Conditii: VFR
METAR: LRSM 211130Z 21012KT 9999 VCSH FEW035CB FEW040 19/11 Q1008 R01/29//95
LRSV
Conditii: VFR
METAR: LRSV 211130Z AUTO 25014KT 9999 FEW065/// 18/09 Q1008
LRTM
Conditii: VFR
METAR: LRTM 211130Z 10005KT 070V130 9999 FEW015 SCT023 16/12 Q1011 R07/29//95
LRTR
Conditii: VFR
METAR: LRTR 211130Z 20014KT 9999 VCSH BKN047 FEW050CB 20/09 Q1010
LRTC
Conditii: VFR
METAR: LRTC 211130Z 16014KT 9999 FEW048 FEW050TCU 25/11 Q1011